sensor_id;sensor_type;location;lat;lon;timestamp;temperature;humidity
7684;DHT22;3884;48.616;12.872;2023-03-21T00:02:17;7.00;99.90
7684;DHT22;3884;48.616;12.872;2023-03-21T00:04:44;7.00;1.00
7684;DHT22;3884;48.616;12.872;2023-03-21T00:07:11;7.10;79.00
7684;DHT22;3884;48.616;12.872;2023-03-21T00:09:39;7.20;1.00
7684;DHT22;3884;48.616;12.872;2023-03-21T00:12:06;7.10;99.40
7684;DHT22;3884;48.616;12.872;2023-03-21T00:14:35;7.00;99.90
7684;DHT22;3884;48.616;12.872;2023-03-21T00:17:02;7.10;16.10
7684;DHT22;3884;48.616;12.872;2023-03-21T00:19:29;7.00;99.90
7684;DHT22;3884;48.616;12.872;2023-03-21T00:21:57;7.00;99.90
7684;DHT22;3884;48.616;12.872;2023-03-21T00:24:24;7.00;99.90
7684;DHT22;3884;48.616;12.872;2023-03-21T00:26:52;7.00;1.00
7684;DHT22;3884;48.616;12.872;2023-03-21T00:29:19;7.00;1.00
7684;DHT22;3884;48.616;12.872;2023-03-21T00:31:46;7.00;99.90
7684;DHT22;3884;48.616;12.872;2023-03-21T00:34:13;7.00;1.00
7684;DHT22;3884;48.616;12.872;2023-03-21T00:36:40;6.90;1.00
7684;DHT22;3884;48.616;12.872;2023-03-21T00:39:08;6.90;1.00
7684;DHT22;3884;48.616;12.872;2023-03-21T00:41:35;6.80;99.90
7684;DHT22;3884;48.616;12.872;2023-03-21T00:44:03;6.80;99.90
7684;DHT22;3884;48.616;12.872;2023-03-21T00:46:30;6.70;28.80
7684;DHT22;3884;48.616;12.872;2023-03-21T00:48:57;6.70;99.90
7684;DHT22;3884;48.616;12.872;2023-03-21T00:51:24;6.60;1.00
7684;DHT22;3884;48.616;12.872;2023-03-21T00:53:53;6.60;99.90
7684;DHT22;3884;48.616;12.872;2023-03-21T00:56:20;6.60;99.90
7684;DHT22;3884;48.616;12.872;2023-03-21T00:58:47;6.50;1.00
7684;DHT22;3884;48.616;12.872;2023-03-21T01:01:16;6.50;54.20
7684;DHT22;3884;48.616;12.872;2023-03-21T01:03:43;6.50;66.90
7684;DHT22;3884;48.616;12.872;2023-03-21T01:06:16;6.50;99.90
7684;DHT22;3884;48.616;12.872;2023-03-21T01:08:45;6.50;1.00
7684;DHT22;3884;48.616;12.872;2023-03-21T01:11:15;6.50;1.00
7684;DHT22;3884;48.616;12.872;2023-03-21T01:13:44;6.50;1.00
7684;DHT22;3884;48.616;12.872;2023-03-21T01:16:11;6.40;1.00
7684;DHT22;3884;48.616;12.872;2023-03-21T01:18:40;6.40;1.00
7684;DHT22;3884;48.616;12.872;2023-03-21T01:21:09;6.30;1.00
7684;DHT22;3884;48.616;12.872;2023-03-21T01:23:37;6.30;1.00
7684;DHT22;3884;48.616;12.872;2023-03-21T01:26:05;6.30;1.00
7684;DHT22;3884;48.616;12.872;2023-03-21T01:28:33;6.10;1.00
7684;DHT22;3884;48.616;12.872;2023-03-21T01:31:01;6.10;1.00
7684;DHT22;3884;48.616;12.872;2023-03-21T01:33:29;6.10;1.00
7684;DHT22;3884;48.616;12.872;2023-03-21T01:35:59;6.10;1.00
7684;DHT22;3884;48.616;12.872;2023-03-21T01:38:28;6.10;1.00
7684;DHT22;3884;48.616;12.872;2023-03-21T01:40:55;6.00;99.90
7684;DHT22;3884;48.616;12.872;2023-03-21T01:43:31;6.00;99.90
7684;DHT22;3884;48.616;12.872;2023-03-21T01:46:20;6.00;99.90
7684;DHT22;3884;48.616;12.872;2023-03-21T01:49:16;6.10;99.90
7684;DHT22;3884;48.616;12.872;2023-03-21T01:51:52;6.10;99.90
7684;DHT22;3884;48.616;12.872;2023-03-21T01:54:23;6.00;99.90
7684;DHT22;3884;48.616;12.872;2023-03-21T01:56:53;5.90;1.00
7684;DHT22;3884;48.616;12.872;2023-03-21T01:59:24;5.90;1.00
7684;DHT22;3884;48.616;12.872;2023-03-21T02:02:11;5.90;1.00
7684;DHT22;3884;48.616;12.872;2023-03-21T02:04:54;5.90;1.00
7684;DHT22;3884;48.616;12.872;2023-03-21T02:07:29;5.90;1.00
7684;DHT22;3884;48.616;12.872;2023-03-21T02:10:04;5.80;99.90
7684;DHT22;3884;48.616;12.872;2023-03-21T02:12:33;5.80;1.00
7684;DHT22;3884;48.616;12.872;2023-03-21T02:15:01;5.70;1.00
7684;DHT22;3884;48.616;12.872;2023-03-21T02:17:41;5.80;1.00
7684;DHT22;3884;48.616;12.872;2023-03-21T02:20:26;5.80;99.90
7684;DHT22;3884;48.616;12.872;2023-03-21T02:23:32;5.70;1.00
7684;DHT22;3884;48.616;12.872;2023-03-21T02:26:33;5.60;99.90
7684;DHT22;3884;48.616;12.872;2023-03-21T02:29:07;5.60;99.90
7684;DHT22;3884;48.616;12.872;2023-03-21T02:31:41;5.60;1.00
7684;DHT22;3884;48.616;12.872;2023-03-21T02:34:35;5.50;99.90
7684;DHT22;3884;48.616;12.872;2023-03-21T02:37:15;5.40;1.00
7684;DHT22;3884;48.616;12.872;2023-03-21T02:39:54;5.40;99.90
7684;DHT22;3884;48.616;12.872;2023-03-21T02:42:28;5.50;99.90
7684;DHT22;3884;48.616;12.872;2023-03-21T02:45:03;5.50;99.90
7684;DHT22;3884;48.616;12.872;2023-03-21T02:47:38;5.70;99.90
7684;DHT22;3884;48.616;12.872;2023-03-21T02:50:12;5.70;1.00
7684;DHT22;3884;48.616;12.872;2023-03-21T02:52:45;5.70;61.60
7684;DHT22;3884;48.616;12.872;2023-03-21T02:55:16;5.70;1.00
7684;DHT22;3884;48.616;12.872;2023-03-21T02:57:53;5.60;1.00
7684;DHT22;3884;48.616;12.872;2023-03-21T03:00:22;5.50;53.50
7684;DHT22;3884;48.616;12.872;2023-03-21T03:02:51;5.40;96.50
7684;DHT22;3884;48.616;12.872;2023-03-21T03:05:21;5.40;99.90
7684;DHT22;3884;48.616;12.872;2023-03-21T03:08:07;5.40;1.00
7684;DHT22;3884;48.616;12.872;2023-03-21T03:10:49;5.40;1.00
7684;DHT22;3884;48.616;12.872;2023-03-21T03:13:36;5.50;99.90
7684;DHT22;3884;48.616;12.872;2023-03-21T03:16:13;5.50;99.90
7684;DHT22;3884;48.616;12.872;2023-03-21T03:18:49;5.60;99.90
7684;DHT22;3884;48.616;12.872;2023-03-21T03:21:22;5.80;99.90
7684;DHT22;3884;48.616;12.872;2023-03-21T03:23:53;5.80;1.00
7684;DHT22;3884;48.616;12.872;2023-03-21T03:26:24;5.70;99.90
7684;DHT22;3884;48.616;12.872;2023-03-21T03:28:59;5.70;37.10
7684;DHT22;3884;48.616;12.872;2023-03-21T03:31:32;5.70;1.00
7684;DHT22;3884;48.616;12.872;2023-03-21T03:34:04;5.60;99.90
7684;DHT22;3884;48.616;12.872;2023-03-21T03:36:39;5.70;99.90
7684;DHT22;3884;48.616;12.872;2023-03-21T03:39:13;5.60;99.90
7684;DHT22;3884;48.616;12.872;2023-03-21T03:41:46;5.60;99.90
7684;DHT22;3884;48.616;12.872;2023-03-21T03:44:13;5.50;1.00
7684;DHT22;3884;48.616;12.872;2023-03-21T03:50:12;5.40;71.10
7684;DHT22;3884;48.616;12.872;2023-03-21T03:52:44;5.30;99.90
7684;DHT22;3884;48.616;12.872;2023-03-21T03:55:16;5.40;99.90
7684;DHT22;3884;48.616;12.872;2023-03-21T03:57:48;5.50;99.90
7684;DHT22;3884;48.616;12.872;2023-03-21T04:00:16;5.40;99.90
7684;DHT22;3884;48.616;12.872;2023-03-21T04:02:43;5.40;99.90
7684;DHT22;3884;48.616;12.872;2023-03-21T04:05:13;5.50;1.00
7684;DHT22;3884;48.616;12.872;2023-03-21T04:07:45;5.60;99.90
7684;DHT22;3884;48.616;12.872;2023-03-21T04:10:15;5.60;88.50
7684;DHT22;3884;48.616;12.872;2023-03-21T04:12:42;5.70;99.90
7684;DHT22;3884;48.616;12.872;2023-03-21T04:15:21;5.70;1.00
7684;DHT22;3884;48.616;12.872;2023-03-21T04:17:54;5.70;1.00
7684;DHT22;3884;48.616;12.872;2023-03-21T04:20:22;5.70;1.00
7684;DHT22;3884;48.616;12.872;2023-03-21T04:22:49;5.60;99.90
7684;DHT22;3884;48.616;12.872;2023-03-21T04:25:18;5.70;99.90
7684;DHT22;3884;48.616;12.872;2023-03-21T04:27:45;5.60;99.90
7684;DHT22;3884;48.616;12.872;2023-03-21T04:30:32;5.60;1.00
7684;DHT22;3884;48.616;12.872;2023-03-21T04:33:20;5.70;1.00
7684;DHT22;3884;48.616;12.872;2023-03-21T04:35:53;5.60;1.00
7684;DHT22;3884;48.616;12.872;2023-03-21T04:38:22;5.60;1.00
7684;DHT22;3884;48.616;12.872;2023-03-21T04:40:51;5.60;4.10
7684;DHT22;3884;48.616;12.872;2023-03-21T04:43:17;5.60;99.90
7684;DHT22;3884;48.616;12.872;2023-03-21T04:45:45;5.70;99.90
7684;DHT22;3884;48.616;12.872;2023-03-21T04:48:12;5.70;99.90
7684;DHT22;3884;48.616;12.872;2023-03-21T04:50:39;5.70;99.90
7684;DHT22;3884;48.616;12.872;2023-03-21T04:53:06;5.70;99.90
7684;DHT22;3884;48.616;12.872;2023-03-21T04:55:33;5.60;1.00
7684;DHT22;3884;48.616;12.872;2023-03-21T04:58:03;5.70;1.00
7684;DHT22;3884;48.616;12.872;2023-03-21T05:00:31;5.80;1.00
7684;DHT22;3884;48.616;12.872;2023-03-21T05:03:02;5.70;1.00
7684;DHT22;3884;48.616;12.872;2023-03-21T05:05:29;5.80;1.00
7684;DHT22;3884;48.616;12.872;2023-03-21T05:07:56;5.70;1.00
7684;DHT22;3884;48.616;12.872;2023-03-21T05:10:25;5.70;1.00
7684;DHT22;3884;48.616;12.872;2023-03-21T05:12:52;5.60;1.00
7684;DHT22;3884;48.616;12.872;2023-03-21T05:15:20;5.60;1.00
7684;DHT22;3884;48.616;12.872;2023-03-21T05:17:47;5.60;1.00
7684;DHT22;3884;48.616;12.872;2023-03-21T05:20:15;5.70;1.00
7684;DHT22;3884;48.616;12.872;2023-03-21T05:22:42;5.70;1.00
7684;DHT22;3884;48.616;12.872;2023-03-21T05:25:12;5.70;1.00
7684;DHT22;3884;48.616;12.872;2023-03-21T05:27:58;5.70;35.00
7684;DHT22;3884;48.616;12.872;2023-03-21T05:30:29;5.70;1.00
7684;DHT22;3884;48.616;12.872;2023-03-21T05:32:59;5.70;1.00
7684;DHT22;3884;48.616;12.872;2023-03-21T05:35:26;5.70;1.00
7684;DHT22;3884;48.616;12.872;2023-03-21T05:37:56;5.70;1.00
7684;DHT22;3884;48.616;12.872;2023-03-21T05:40:26;5.80;92.80
7684;DHT22;3884;48.616;12.872;2023-03-21T05:42:56;5.80;1.00
7684;DHT22;3884;48.616;12.872;2023-03-21T05:45:23;5.80;1.00
7684;DHT22;3884;48.616;12.872;2023-03-21T05:47:52;5.80;1.00
7684;DHT22;3884;48.616;12.872;2023-03-21T05:50:22;5.70;1.00
7684;DHT22;3884;48.616;12.872;2023-03-21T05:53:03;5.70;1.00
7684;DHT22;3884;48.616;12.872;2023-03-21T05:55:30;5.80;1.00
7684;DHT22;3884;48.616;12.872;2023-03-21T05:57:57;5.80;1.00
7684;DHT22;3884;48.616;12.872;2023-03-21T06:00:27;5.70;1.00
7684;DHT22;3884;48.616;12.872;2023-03-21T06:03:12;5.70;1.00
7684;DHT22;3884;48.616;12.872;2023-03-21T06:05:53;5.80;1.00
7684;DHT22;3884;48.616;12.872;2023-03-21T06:08:24;5.90;1.00
7684;DHT22;3884;48.616;12.872;2023-03-21T06:10:51;5.90;34.00
7684;DHT22;3884;48.616;12.872;2023-03-21T06:13:20;6.00;1.00
7684;DHT22;3884;48.616;12.872;2023-03-21T06:15:47;6.10;1.00
7684;DHT22;3884;48.616;12.872;2023-03-21T06:18:19;6.10;1.00
7684;DHT22;3884;48.616;12.872;2023-03-21T06:20:57;6.20;1.00
7684;DHT22;3884;48.616;12.872;2023-03-21T06:23:25;6.40;99.90
7684;DHT22;3884;48.616;12.872;2023-03-21T06:25:52;6.30;1.00
7684;DHT22;3884;48.616;12.872;2023-03-21T06:28:20;6.20;1.00
7684;DHT22;3884;48.616;12.872;2023-03-21T06:30:48;6.20;1.00
7684;DHT22;3884;48.616;12.872;2023-03-21T06:33:21;6.20;1.00
7684;DHT22;3884;48.616;12.872;2023-03-21T06:35:50;6.20;1.00
7684;DHT22;3884;48.616;12.872;2023-03-21T06:38:18;6.20;1.00
7684;DHT22;3884;48.616;12.872;2023-03-21T06:40:46;6.30;1.00
7684;DHT22;3884;48.616;12.872;2023-03-21T06:43:13;6.30;1.00
7684;DHT22;3884;48.616;12.872;2023-03-21T06:45:42;6.30;1.00
7684;DHT22;3884;48.616;12.872;2023-03-21T06:48:10;6.30;1.00
7684;DHT22;3884;48.616;12.872;2023-03-21T06:50:48;6.30;1.00
7684;DHT22;3884;48.616;12.872;2023-03-21T06:53:17;6.40;94.20
7684;DHT22;3884;48.616;12.872;2023-03-21T06:56:13;6.60;1.00
7684;DHT22;3884;48.616;12.872;2023-03-21T06:58:41;6.80;94.00
7684;DHT22;3884;48.616;12.872;2023-03-21T07:01:16;6.80;1.00
7684;DHT22;3884;48.616;12.872;2023-03-21T07:03:53;6.90;1.00
7684;DHT22;3884;48.616;12.872;2023-03-21T07:06:24;7.10;1.00
7684;DHT22;3884;48.616;12.872;2023-03-21T07:08:53;7.20;72.40
7684;DHT22;3884;48.616;12.872;2023-03-21T07:11:22;7.30;99.90
7684;DHT22;3884;48.616;12.872;2023-03-21T07:13:50;7.40;99.90
7684;DHT22;3884;48.616;12.872;2023-03-21T07:16:18;7.40;99.90
7684;DHT22;3884;48.616;12.872;2023-03-21T07:18:46;7.50;99.90
7684;DHT22;3884;48.616;12.872;2023-03-21T07:21:13;7.70;99.90
7684;DHT22;3884;48.616;12.872;2023-03-21T07:23:42;7.90;99.90
7684;DHT22;3884;48.616;12.872;2023-03-21T07:26:09;8.10;1.00
7684;DHT22;3884;48.616;12.872;2023-03-21T07:28:37;8.30;99.90
7684;DHT22;3884;48.616;12.872;2023-03-21T07:31:05;8.40;99.90
7684;DHT22;3884;48.616;12.872;2023-03-21T07:33:33;8.60;85.00
7684;DHT22;3884;48.616;12.872;2023-03-21T07:36:01;8.70;1.00
7684;DHT22;3884;48.616;12.872;2023-03-21T07:38:29;9.00;1.00
7684;DHT22;3884;48.616;12.872;2023-03-21T07:40:59;9.20;1.00
7684;DHT22;3884;48.616;12.872;2023-03-21T07:43:29;9.10;1.00
7684;DHT22;3884;48.616;12.872;2023-03-21T07:45:58;9.10;1.00
7684;DHT22;3884;48.616;12.872;2023-03-21T07:48:26;9.10;99.90
7684;DHT22;3884;48.616;12.872;2023-03-21T07:50:53;9.10;99.90
7684;DHT22;3884;48.616;12.872;2023-03-21T07:53:20;9.20;39.70
7684;DHT22;3884;48.616;12.872;2023-03-21T07:55:49;9.20;1.00
7684;DHT22;3884;48.616;12.872;2023-03-21T07:58:18;9.20;99.90
7684;DHT22;3884;48.616;12.872;2023-03-21T08:00:45;9.30;1.00
7684;DHT22;3884;48.616;12.872;2023-03-21T08:03:12;9.50;69.20
7684;DHT22;3884;48.616;12.872;2023-03-21T08:05:39;9.60;1.00
7684;DHT22;3884;48.616;12.872;2023-03-21T08:08:07;9.80;99.90
7684;DHT22;3884;48.616;12.872;2023-03-21T08:10:34;10.00;1.00
7684;DHT22;3884;48.616;12.872;2023-03-21T08:13:01;10.20;1.00
7684;DHT22;3884;48.616;12.872;2023-03-21T08:15:30;10.40;1.00
7684;DHT22;3884;48.616;12.872;2023-03-21T08:17:57;10.50;1.00
7684;DHT22;3884;48.616;12.872;2023-03-21T08:20:24;10.60;99.90
7684;DHT22;3884;48.616;12.872;2023-03-21T08:22:51;10.70;99.90
7684;DHT22;3884;48.616;12.872;2023-03-21T08:25:20;10.60;99.90
7684;DHT22;3884;48.616;12.872;2023-03-21T08:27:48;10.60;99.90
7684;DHT22;3884;48.616;12.872;2023-03-21T08:30:18;10.50;99.90
7684;DHT22;3884;48.616;12.872;2023-03-21T08:32:47;10.40;1.00
7684;DHT22;3884;48.616;12.872;2023-03-21T08:35:17;10.40;99.90
7684;DHT22;3884;48.616;12.872;2023-03-21T08:37:44;10.70;1.00
7684;DHT22;3884;48.616;12.872;2023-03-21T08:40:18;11.00;1.00
7684;DHT22;3884;48.616;12.872;2023-03-21T08:42:45;11.20;96.20
7684;DHT22;3884;48.616;12.872;2023-03-21T08:45:13;11.20;99.90
7684;DHT22;3884;48.616;12.872;2023-03-21T08:47:53;11.50;11.50
7684;DHT22;3884;48.616;12.872;2023-03-21T08:50:23;11.50;1.00
7684;DHT22;3884;48.616;12.872;2023-03-21T08:52:51;11.60;1.00
7684;DHT22;3884;48.616;12.872;2023-03-21T08:55:18;11.80;52.50
7684;DHT22;3884;48.616;12.872;2023-03-21T08:57:45;12.00;1.00
7684;DHT22;3884;48.616;12.872;2023-03-21T09:00:15;12.20;1.00
7684;DHT22;3884;48.616;12.872;2023-03-21T09:02:43;12.40;1.00
7684;DHT22;3884;48.616;12.872;2023-03-21T09:05:12;12.30;1.00
7684;DHT22;3884;48.616;12.872;2023-03-21T09:07:41;12.40;1.00
7684;DHT22;3884;48.616;12.872;2023-03-21T09:10:10;12.60;1.00
7684;DHT22;3884;48.616;12.872;2023-03-21T09:12:37;12.60;1.00
7684;DHT22;3884;48.616;12.872;2023-03-21T09:15:06;12.80;1.00
7684;DHT22;3884;48.616;12.872;2023-03-21T09:17:33;12.90;22.60
7684;DHT22;3884;48.616;12.872;2023-03-21T09:20:01;12.80;99.90
7684;DHT22;3884;48.616;12.872;2023-03-21T09:22:31;12.70;1.00
7684;DHT22;3884;48.616;12.872;2023-03-21T09:24:58;12.80;1.00
7684;DHT22;3884;48.616;12.872;2023-03-21T09:27:33;12.70;99.90
7684;DHT22;3884;48.616;12.872;2023-03-21T09:30:00;12.90;1.00
7684;DHT22;3884;48.616;12.872;2023-03-21T09:32:27;13.10;1.00
7684;DHT22;3884;48.616;12.872;2023-03-21T09:34:54;13.30;1.00
7684;DHT22;3884;48.616;12.872;2023-03-21T09:37:22;13.40;1.00
7684;DHT22;3884;48.616;12.872;2023-03-21T09:39:50;13.40;1.00
7684;DHT22;3884;48.616;12.872;2023-03-21T09:42:30;13.40;99.90
7684;DHT22;3884;48.616;12.872;2023-03-21T09:45:07;13.60;1.00
7684;DHT22;3884;48.616;12.872;2023-03-21T09:47:40;13.70;19.70
7684;DHT22;3884;48.616;12.872;2023-03-21T09:50:15;13.90;22.60
7684;DHT22;3884;48.616;12.872;2023-03-21T09:52:47;13.90;99.90
7684;DHT22;3884;48.616;12.872;2023-03-21T09:55:19;14.00;1.00
7684;DHT22;3884;48.616;12.872;2023-03-21T09:57:49;14.00;1.00
7684;DHT22;3884;48.616;12.872;2023-03-21T10:00:23;13.90;1.00
7684;DHT22;3884;48.616;12.872;2023-03-21T10:02:56;13.60;1.00
7684;DHT22;3884;48.616;12.872;2023-03-21T10:05:28;13.30;1.00
7684;DHT22;3884;48.616;12.872;2023-03-21T10:07:58;13.30;1.00
7684;DHT22;3884;48.616;12.872;2023-03-21T10:10:31;13.40;1.00
7684;DHT22;3884;48.616;12.872;2023-03-21T10:13:00;13.50;99.90
7684;DHT22;3884;48.616;12.872;2023-03-21T10:15:27;13.40;1.00
7684;DHT22;3884;48.616;12.872;2023-03-21T10:17:58;13.40;99.90
7684;DHT22;3884;48.616;12.872;2023-03-21T10:20:29;13.40;99.90
7684;DHT22;3884;48.616;12.872;2023-03-21T10:22:58;13.30;1.00
7684;DHT22;3884;48.616;12.872;2023-03-21T10:25:31;13.20;99.90
7684;DHT22;3884;48.616;12.872;2023-03-21T10:27:59;13.20;1.00
7684;DHT22;3884;48.616;12.872;2023-03-21T10:30:36;13.20;1.00
7684;DHT22;3884;48.616;12.872;2023-03-21T10:33:07;13.10;99.90
7684;DHT22;3884;48.616;12.872;2023-03-21T10:35:35;13.10;99.90
7684;DHT22;3884;48.616;12.872;2023-03-21T10:38:05;13.20;1.00
7684;DHT22;3884;48.616;12.872;2023-03-21T10:40:33;13.30;99.90
7684;DHT22;3884;48.616;12.872;2023-03-21T10:43:19;13.30;99.90
7684;DHT22;3884;48.616;12.872;2023-03-21T10:45:52;13.40;99.90
7684;DHT22;3884;48.616;12.872;2023-03-21T10:48:20;13.30;99.90
7684;DHT22;3884;48.616;12.872;2023-03-21T10:50:50;13.30;1.00
7684;DHT22;3884;48.616;12.872;2023-03-21T10:53:20;13.50;1.00
7684;DHT22;3884;48.616;12.872;2023-03-21T10:55:51;13.60;1.00
7684;DHT22;3884;48.616;12.872;2023-03-21T10:58:23;13.60;1.00
7684;DHT22;3884;48.616;12.872;2023-03-21T11:00:54;13.70;99.90
7684;DHT22;3884;48.616;12.872;2023-03-21T11:03:26;13.80;99.90
7684;DHT22;3884;48.616;12.872;2023-03-21T11:06:03;13.70;99.90
7684;DHT22;3884;48.616;12.872;2023-03-21T11:08:37;13.60;1.00
7684;DHT22;3884;48.616;12.872;2023-03-21T11:11:06;13.60;99.90
7684;DHT22;3884;48.616;12.872;2023-03-21T11:13:37;13.50;99.90
7684;DHT22;3884;48.616;12.872;2023-03-21T11:16:07;13.60;99.90
7684;DHT22;3884;48.616;12.872;2023-03-21T11:18:40;13.60;99.90
7684;DHT22;3884;48.616;12.872;2023-03-21T11:21:09;13.40;99.90
7684;DHT22;3884;48.616;12.872;2023-03-21T11:23:40;13.40;99.90
7684;DHT22;3884;48.616;12.872;2023-03-21T11:26:15;13.50;99.90
7684;DHT22;3884;48.616;12.872;2023-03-21T11:28:45;13.60;99.90
7684;DHT22;3884;48.616;12.872;2023-03-21T11:31:12;13.60;99.90
7684;DHT22;3884;48.616;12.872;2023-03-21T11:33:41;13.60;99.90
7684;DHT22;3884;48.616;12.872;2023-03-21T11:36:27;13.70;99.90
7684;DHT22;3884;48.616;12.872;2023-03-21T11:39:02;13.60;99.90
7684;DHT22;3884;48.616;12.872;2023-03-21T11:41:41;13.70;96.00
7684;DHT22;3884;48.616;12.872;2023-03-21T11:44:26;13.70;99.90
7684;DHT22;3884;48.616;12.872;2023-03-21T11:46:53;13.90;99.90
7684;DHT22;3884;48.616;12.872;2023-03-21T11:49:21;14.00;99.90
7684;DHT22;3884;48.616;12.872;2023-03-21T11:51:57;14.10;1.00
7684;DHT22;3884;48.616;12.872;2023-03-21T11:54:32;14.20;99.90
7684;DHT22;3884;48.616;12.872;2023-03-21T11:57:10;14.10;99.90
7684;DHT22;3884;48.616;12.872;2023-03-21T11:59:45;14.10;99.90
7684;DHT22;3884;48.616;12.872;2023-03-21T12:02:39;14.00;88.50
7684;DHT22;3884;48.616;12.872;2023-03-21T12:05:13;14.10;91.80
7684;DHT22;3884;48.616;12.872;2023-03-21T12:07:50;14.20;99.90
7684;DHT22;3884;48.616;12.872;2023-03-21T12:10:31;14.40;99.90
7684;DHT22;3884;48.616;12.872;2023-03-21T12:13:13;14.70;99.90
7684;DHT22;3884;48.616;12.872;2023-03-21T12:15:49;14.60;6.30
7684;DHT22;3884;48.616;12.872;2023-03-21T12:21:17;14.60;1.00
7684;DHT22;3884;48.616;12.872;2023-03-21T12:23:59;14.60;99.90
7684;DHT22;3884;48.616;12.872;2023-03-21T12:26:30;14.50;84.80
7684;DHT22;3884;48.616;12.872;2023-03-21T12:29:18;14.50;39.90
7684;DHT22;3884;48.616;12.872;2023-03-21T12:31:56;14.50;86.90
7684;DHT22;3884;48.616;12.872;2023-03-21T12:37:20;14.60;99.90
7684;DHT22;3884;48.616;12.872;2023-03-21T12:39:50;14.80;60.00
7684;DHT22;3884;48.616;12.872;2023-03-21T12:42:36;14.80;30.40
7684;DHT22;3884;48.616;12.872;2023-03-21T12:45:11;15.00;28.60
7684;DHT22;3884;48.616;12.872;2023-03-21T12:47:40;15.10;91.90
7684;DHT22;3884;48.616;12.872;2023-03-21T12:50:13;15.20;99.90
7684;DHT22;3884;48.616;12.872;2023-03-21T12:52:43;15.10;9.40
7684;DHT22;3884;48.616;12.872;2023-03-21T12:55:15;15.00;90.70
7684;DHT22;3884;48.616;12.872;2023-03-21T12:57:47;15.10;99.90
7684;DHT22;3884;48.616;12.872;2023-03-21T13:00:20;15.20;67.50
7684;DHT22;3884;48.616;12.872;2023-03-21T13:02:52;15.40;1.00
7684;DHT22;3884;48.616;12.872;2023-03-21T13:05:24;15.40;37.20
7684;DHT22;3884;48.616;12.872;2023-03-21T13:07:58;15.50;99.90
7684;DHT22;3884;48.616;12.872;2023-03-21T13:10:26;15.70;99.90
7684;DHT22;3884;48.616;12.872;2023-03-21T13:13:00;15.80;1.00
7684;DHT22;3884;48.616;12.872;2023-03-21T13:16:00;15.90;1.00
7684;DHT22;3884;48.616;12.872;2023-03-21T13:18:34;15.80;1.00
7684;DHT22;3884;48.616;12.872;2023-03-21T13:21:09;15.80;99.90
7684;DHT22;3884;48.616;12.872;2023-03-21T13:23:38;15.90;99.90
7684;DHT22;3884;48.616;12.872;2023-03-21T13:26:09;15.90;99.90
7684;DHT22;3884;48.616;12.872;2023-03-21T13:28:39;16.00;99.90
7684;DHT22;3884;48.616;12.872;2023-03-21T13:31:18;16.10;99.00
7684;DHT22;3884;48.616;12.872;2023-03-21T13:33:48;16.00;1.00
7684;DHT22;3884;48.616;12.872;2023-03-21T13:36:17;15.90;1.00
7684;DHT22;3884;48.616;12.872;2023-03-21T13:38:49;15.80;2.80
7684;DHT22;3884;48.616;12.872;2023-03-21T13:41:19;15.80;1.00
7684;DHT22;3884;48.616;12.872;2023-03-21T13:43:52;15.80;99.90
7684;DHT22;3884;48.616;12.872;2023-03-21T13:46:36;15.90;99.90
7684;DHT22;3884;48.616;12.872;2023-03-21T13:49:25;16.10;1.00
7684;DHT22;3884;48.616;12.872;2023-03-21T13:51:53;16.30;1.00
7684;DHT22;3884;48.616;12.872;2023-03-21T13:54:26;16.40;99.90
7684;DHT22;3884;48.616;12.872;2023-03-21T13:56:56;16.50;1.00
7684;DHT22;3884;48.616;12.872;2023-03-21T13:59:39;16.80;92.40
7684;DHT22;3884;48.616;12.872;2023-03-21T14:02:23;16.80;1.00
7684;DHT22;3884;48.616;12.872;2023-03-21T14:04:56;16.90;1.00
7684;DHT22;3884;48.616;12.872;2023-03-21T14:07:26;16.90;99.90
7684;DHT22;3884;48.616;12.872;2023-03-21T14:09:58;16.80;1.00
7684;DHT22;3884;48.616;12.872;2023-03-21T14:12:28;17.00;1.00
7684;DHT22;3884;48.616;12.872;2023-03-21T14:14:59;17.00;6.90
7684;DHT22;3884;48.616;12.872;2023-03-21T14:17:29;17.20;99.90
7684;DHT22;3884;48.616;12.872;2023-03-21T14:19:59;17.30;11.90
7684;DHT22;3884;48.616;12.872;2023-03-21T14:22:27;17.50;7.40
7684;DHT22;3884;48.616;12.872;2023-03-21T14:24:55;17.20;99.90
7684;DHT22;3884;48.616;12.872;2023-03-21T14:27:27;17.50;1.00
7684;DHT22;3884;48.616;12.872;2023-03-21T14:29:55;17.60;99.90
7684;DHT22;3884;48.616;12.872;2023-03-21T14:32:24;17.80;99.90
7684;DHT22;3884;48.616;12.872;2023-03-21T14:34:54;17.90;99.90
7684;DHT22;3884;48.616;12.872;2023-03-21T14:37:30;18.00;1.00
7684;DHT22;3884;48.616;12.872;2023-03-21T14:39:59;17.90;99.90
7684;DHT22;3884;48.616;12.872;2023-03-21T14:42:31;17.90;3.30
7684;DHT22;3884;48.616;12.872;2023-03-21T14:44:59;17.40;1.00
7684;DHT22;3884;48.616;12.872;2023-03-21T14:47:28;17.40;1.00
7684;DHT22;3884;48.616;12.872;2023-03-21T14:49:58;17.30;99.90
7684;DHT22;3884;48.616;12.872;2023-03-21T14:52:29;17.60;99.90
7684;DHT22;3884;48.616;12.872;2023-03-21T14:54:57;17.50;99.90
7684;DHT22;3884;48.616;12.872;2023-03-21T14:57:27;17.80;99.30
7684;DHT22;3884;48.616;12.872;2023-03-21T14:59:59;17.50;99.90
7684;DHT22;3884;48.616;12.872;2023-03-21T15:02:30;17.60;1.00
7684;DHT22;3884;48.616;12.872;2023-03-21T15:05:07;17.50;99.90
7684;DHT22;3884;48.616;12.872;2023-03-21T15:07:34;17.70;99.90
7684;DHT22;3884;48.616;12.872;2023-03-21T15:10:04;18.10;99.90
7684;DHT22;3884;48.616;12.872;2023-03-21T15:12:32;18.00;99.90
7684;DHT22;3884;48.616;12.872;2023-03-21T15:14:59;17.90;1.00
7684;DHT22;3884;48.616;12.872;2023-03-21T15:17:28;17.60;10.60
7684;DHT22;3884;48.616;12.872;2023-03-21T15:19:55;17.60;1.00
7684;DHT22;3884;48.616;12.872;2023-03-21T15:22:29;17.70;1.00
7684;DHT22;3884;48.616;12.872;2023-03-21T15:24:58;17.70;99.90
7684;DHT22;3884;48.616;12.872;2023-03-21T15:27:28;17.70;1.00
7684;DHT22;3884;48.616;12.872;2023-03-21T15:29:56;17.70;99.90
7684;DHT22;3884;48.616;12.872;2023-03-21T15:32:25;17.80;1.00
7684;DHT22;3884;48.616;12.872;2023-03-21T15:34:53;17.70;99.90
7684;DHT22;3884;48.616;12.872;2023-03-21T15:37:25;17.70;99.90
7684;DHT22;3884;48.616;12.872;2023-03-21T15:39:52;17.60;1.00
7684;DHT22;3884;48.616;12.872;2023-03-21T15:42:25;17.50;99.90
7684;DHT22;3884;48.616;12.872;2023-03-21T15:44:55;17.50;99.90
7684;DHT22;3884;48.616;12.872;2023-03-21T15:47:49;17.30;99.90
7684;DHT22;3884;48.616;12.872;2023-03-21T15:50:25;17.20;1.00
7684;DHT22;3884;48.616;12.872;2023-03-21T15:52:57;17.10;1.00
7684;DHT22;3884;48.616;12.872;2023-03-21T15:55:28;16.90;1.00
7684;DHT22;3884;48.616;12.872;2023-03-21T15:58:03;17.00;99.90
7684;DHT22;3884;48.616;12.872;2023-03-21T16:00:37;17.10;99.90
7684;DHT22;3884;48.616;12.872;2023-03-21T16:03:07;17.20;99.90
7684;DHT22;3884;48.616;12.872;2023-03-21T16:05:35;17.20;1.00
7684;DHT22;3884;48.616;12.872;2023-03-21T16:08:16;17.20;99.90
7684;DHT22;3884;48.616;12.872;2023-03-21T16:10:44;17.20;92.40
7684;DHT22;3884;48.616;12.872;2023-03-21T16:13:11;17.10;1.00
7684;DHT22;3884;48.616;12.872;2023-03-21T16:15:38;16.90;1.00
7684;DHT22;3884;48.616;12.872;2023-03-21T16:18:06;16.90;99.90
7684;DHT22;3884;48.616;12.872;2023-03-21T16:20:35;16.90;1.00
7684;DHT22;3884;48.616;12.872;2023-03-21T16:23:03;16.70;1.00
7684;DHT22;3884;48.616;12.872;2023-03-21T16:25:31;16.70;99.90
7684;DHT22;3884;48.616;12.872;2023-03-21T16:27:59;16.60;99.90
7684;DHT22;3884;48.616;12.872;2023-03-21T16:30:26;16.50;99.90
7684;DHT22;3884;48.616;12.872;2023-03-21T16:32:53;16.40;27.10
7684;DHT22;3884;48.616;12.872;2023-03-21T16:35:21;16.30;99.90
7684;DHT22;3884;48.616;12.872;2023-03-21T16:37:49;16.20;99.90
7684;DHT22;3884;48.616;12.872;2023-03-21T16:40:23;16.10;99.90